This is the latest recevied weather packets stored in our database for station/object VR2HK-13. If no packets are shown the sender has not sent any weather packets the latest 10 day(s).
| Time | Temp. | Humidity | Pressure | Rain* | Wind** | Luminosity | Snow |
|---|---|---|---|---|---|---|---|
| 1777434648 | 23.89° C | 87% | 1012.1 hPa | 0 mm | - | - | - |
| 1777434526 | 23.33° C | 86% | 1012.3 hPa | 0 mm | - | - | - |
| 1777434338 | 23.89° C | 85% | 1012.2 hPa | 0 mm | - | - | - |
| 1777434227 | 24.44° C | 85% | 1012.2 hPa | 0 mm | - | - | - |
| 1777434028 | 25° C | 85% | 1011.5 hPa | 0 mm | - | - | - |
| 1777433927 | 25.56° C | 84% | 1011.3 hPa | 0 mm | - | - | - |
| 1777433717 | 26.11° C | 84% | 1011.1 hPa | 0 mm | - | - | - |
| 1777433626 | 26.11° C | 84% | 1011.2 hPa | 0 mm | - | - | - |
| 1777433326 | 26.11° C | 83% | 1011.4 hPa | 0 mm | - | - | - |
| 1777433098 | 26.11° C | 83% | 1011.3 hPa | 0 mm | - | - | - |
| 1777433027 | 26.11° C | 83% | 1011.3 hPa | 0 mm | - | - | - |
| 1777432787 | 26.11° C | 83% | 1011.3 hPa | 0 mm | - | - | - |
| 1777432726 | 26.67° C | 84% | 1011.2 hPa | 0 mm | - | - | - |
| 1777432478 | 26.67° C | 83% | 1011.2 hPa | 0 mm | - | - | - |
| 1777432427 | 26.67° C | 83% | 1011.2 hPa | 0 mm | - | - | - |
| 1777432167 | 26.67° C | 83% | 1011.4 hPa | 0 mm | - | - | - |
| 1777432126 | 26.67° C | 83% | 1011.4 hPa | 0 mm | - | - | - |
| 1777431857 | 26.67° C | 82% | 1011.4 hPa | 0 mm | - | - | - |
| 1777431826 | 26.67° C | 82% | 1011.3 hPa | 0 mm | - | - | - |
| 1777431548 | 26.67° C | 82% | 1011.3 hPa | 0 mm | - | - | - |
| 1777431526 | 26.67° C | 82% | 1011.4 hPa | 0 mm | - | - | - |
| 1777431237 | 27.22° C | 80% | 1011.5 hPa | 0 mm | - | - | - |
| 1777431226 | 27.22° C | 80% | 1011.5 hPa | 0 mm | - | - | - |
| 1777430929 | 27.22° C | 80% | 1011.4 hPa | 0 mm | - | - | - |
| 1777430926 | 27.22° C | 80% | 1011.4 hPa | 0 mm | - | - | - |
* Rain latest hour (hover to see other rain measurements)
** Current wind speed in m/s (hover to see current wind gust speed)